KTIW/TIW METAR and TAF weather

Enter ICAO airport designator
Station Type Date Time Source
KTIW METAR 2020/06/05 10:53 UTC NOAA

KTIW 051053Z AUTO 00000KT 10SM CLR 10/07 A2985 RMK AO2 SLP106 T01000072


Station Type Date Time Source
KTIW Decoded METAR 2020/06/05 10:53 UTC NOAA

Tacoma, Tacoma Narrows Airport, WA, United States (KTIW) 47-16-03N 122-34-34W 96M
Jun 05, 2020 - 06:53 AM EDT / 2020.06.05 1053 UTC
Wind: Calm:0
Visibility: 10 mile(s):0
Sky conditions: clear
Temperature: 50.0 F (10.0 C)
Dew Point: 45.0 F (7.2 C)
Relative Humidity: 82%
Pressure (altimeter): 29.85 in. Hg (1010 hPa)
ob: KTIW 051053Z AUTO 00000KT 10SM CLR 10/07 A2985 RMK AO2 SLP106 T01000072
cycle: 11

Station Type Date Time Source
KTIW TAF UTC NOAA

Error!

Example: see airport list